Time;durP1;ratioP1;P1;durP2;ratioP2;P2;SDS_P1;SDS_P2;PMS_P1;PMS_P2;Temp;Humidity;BMP_temperature;BMP_pressure;BME280_temperature;BME280_humidity;BME280_pressure;Samples;Min_cycle;Max_cycle;Signal;HPM_P1;HPM_P2
2022/08/17 00:01:06;;;;;;;13.60;8.55;;;;;;;;;;4955912;28;20058;-65
2022/08/17 00:03:36;;;;;;;10.88;9.40;;;;;;;;;;4950255;28;20051;-64
2022/08/17 00:06:05;;;;;;;13.10;9.23;;;;;;;;;;4950369;28;20031;-65
2022/08/17 00:08:37;;;;;;;11.68;9.13;;;;;;;;;;4951534;28;20577;-65
2022/08/17 00:11:08;;;;;;;16.00;9.50;;;;;;;;;;4951532;28;20066;-68
2022/08/17 00:13:37;;;;;;;11.93;9.35;;;;;;;;;;4950006;28;20419;-67
2022/08/17 00:16:10;;;;;;;16.20;10.00;;;;;;;;;;4950210;28;20019;-66
2022/08/17 00:18:37;;;;;;;11.98;9.30;;;;;;;;;;4951008;28;20126;-64
2022/08/17 00:21:05;;;;;;;11.68;10.15;;;;;;;;;;4951863;28;20039;-68
2022/08/17 00:23:31;;;;;;;14.63;9.75;;;;;;;;;;4951770;28;20058;-66
2022/08/17 00:25:56;;;;;;;12.15;10.30;;;;;;;;;;4949387;28;21663;-66
2022/08/17 00:28:22;;;;;;;13.63;9.45;;;;;;;;;;4950174;28;20046;-65
2022/08/17 00:30:51;;;;;;;13.10;9.35;;;;;;;;;;4951950;28;20066;-68
2022/08/17 00:33:20;;;;;;;12.32;9.40;;;;;;;;;;4951790;28;20050;-64
2022/08/17 00:35:47;;;;;;;12.38;9.40;;;;;;;;;;4953631;28;20487;-66
2022/08/17 00:38:13;;;;;;;15.90;9.30;;;;;;;;;;4949704;28;20031;-66
2022/08/17 00:40:42;;;;;;;11.60;9.00;;;;;;;;;;4952123;28;20031;-65
2022/08/17 00:43:32;;;;;;;16.33;9.70;;;;;;;;;;4949457;28;21295;-66
2022/08/17 00:46:02;;;;;;;11.75;9.90;;;;;;;;;;4949231;28;20061;-66
2022/08/17 00:48:29;;;;;;;13.33;9.83;;;;;;;;;;4952451;28;20051;-64
2022/08/17 00:50:58;;;;;;;11.75;9.35;;;;;;;;;;4950467;28;20363;-65
2022/08/17 00:53:27;;;;;;;13.02;9.63;;;;;;;;;;4950058;28;20832;-64
2022/08/17 00:55:53;;;;;;;12.52;9.10;;;;;;;;;;4950113;28;20122;-67
2022/08/17 00:58:19;;;;;;;11.43;9.40;;;;;;;;;;4951632;28;20039;-65
2022/08/17 01:00:45;;;;;;;11.40;10.02;;;;;;;;;;4951146;28;20161;-67
2022/08/17 01:03:19;;;;;;;12.55;10.07;;;;;;;;;;4949764;28;20043;-67
2022/08/17 01:05:47;;;;;;;13.60;9.48;;;;;;;;;;4950181;28;20035;-66
2022/08/17 01:08:15;;;;;;;13.18;9.45;;;;;;;;;;4954430;28;20049;-65
2022/08/17 01:10:50;;;;;;;11.98;9.90;;;;;;;;;;4967407;28;20079;-66
2022/08/17 01:13:16;;;;;;;15.88;10.43;;;;;;;;;;4955065;28;20038;-64
2022/08/17 01:15:47;;;;;;;11.98;9.18;;;;;;;;;;4966223;28;20035;-67
2022/08/17 01:18:13;;;;;;;12.30;9.98;;;;;;;;;;4951855;28;20197;-67
2022/08/17 01:20:46;;;;;;;14.05;10.13;;;;;;;;;;4953412;28;20034;-67
2022/08/17 01:23:12;;;;;;;13.35;10.02;;;;;;;;;;4954041;28;20332;-66
2022/08/17 01:25:37;;;;;;;11.77;10.07;;;;;;;;;;4953095;28;20035;-67
2022/08/17 01:28:04;;;;;;;13.35;10.80;;;;;;;;;;4951895;28;20035;-66
2022/08/17 01:30:30;;;;;;;12.57;10.23;;;;;;;;;;4952923;28;20050;-66
2022/08/17 01:32:55;;;;;;;13.35;10.82;;;;;;;;;;4955202;28;20031;-67
2022/08/17 01:35:21;;;;;;;14.50;10.27;;;;;;;;;;4953224;28;20041;-66
2022/08/17 01:37:46;;;;;;;13.57;10.50;;;;;;;;;;4954940;28;20094;-67
2022/08/17 01:40:36;;;;;;;15.07;10.82;;;;;;;;;;4954091;28;20038;-66
2022/08/17 01:43:13;;;;;;;12.82;10.60;;;;;;;;;;4958515;28;20039;-66
2022/08/17 01:45:45;;;;;;;12.45;10.48;;;;;;;;;;4957111;28;20035;-65
2022/08/17 01:48:12;;;;;;;15.13;11.02;;;;;;;;;;4972998;28;20042;-65
2022/08/17 01:50:40;;;;;;;14.48;10.70;;;;;;;;;;4968769;28;20043;-66
2022/08/17 01:53:17;;;;;;;18.27;11.63;;;;;;;;;;4954287;28;20110;-67
2022/08/17 01:55:48;;;;;;;15.05;10.45;;;;;;;;;;4950754;28;20043;-65
2022/08/17 01:58:13;;;;;;;15.30;11.30;;;;;;;;;;4951599;28;20063;-65
2022/08/17 02:00:41;;;;;;;12.85;10.32;;;;;;;;;;4953562;28;20485;-66
2022/08/17 02:03:07;;;;;;;14.77;10.75;;;;;;;;;;4955019;28;20402;-65
2022/08/17 02:05:34;;;;;;;15.80;11.05;;;;;;;;;;4954291;28;20483;-66
2022/08/17 02:08:00;;;;;;;17.63;11.45;;;;;;;;;;4951718;28;20034;-65
2022/08/17 02:10:27;;;;;;;14.30;11.07;;;;;;;;;;4953460;28;20046;-65
2022/08/17 02:12:52;;;;;;;12.93;11.50;;;;;;;;;;4952789;28;20482;-68
2022/08/17 02:15:19;;;;;;;14.52;11.48;;;;;;;;;;4951866;28;20050;-65
2022/08/17 02:17:45;;;;;;;13.73;11.23;;;;;;;;;;4951685;28;20043;-66
2022/08/17 02:20:11;;;;;;;14.43;11.43;;;;;;;;;;4952789;28;20023;-67
2022/08/17 02:22:38;;;;;;;15.13;11.85;;;;;;;;;;4952673;28;20038;-65
2022/08/17 02:25:08;;;;;;;15.63;11.48;;;;;;;;;;4952085;28;20356;-65
2022/08/17 02:27:34;;;;;;;14.95;11.13;;;;;;;;;;4952288;28;20149;-67
2022/08/17 02:29:59;;;;;;;16.38;11.90;;;;;;;;;;4953716;28;20054;-65
2022/08/17 02:32:25;;;;;;;15.55;12.02;;;;;;;;;;4953569;28;20039;-67
2022/08/17 02:34:51;;;;;;;15.57;11.98;;;;;;;;;;4953478;28;20047;-67
2022/08/17 02:37:17;;;;;;;14.95;12.32;;;;;;;;;;4951302;28;20039;-66
2022/08/17 02:39:44;;;;;;;16.90;12.10;;;;;;;;;;4953436;28;20079;-67
2022/08/17 02:42:11;;;;;;;14.48;12.43;;;;;;;;;;4968553;28;20038;-68
2022/08/17 02:44:37;;;;;;;13.73;12.32;;;;;;;;;;4952757;28;20224;-66
2022/08/17 02:47:03;;;;;;;18.95;12.30;;;;;;;;;;4951159;28;20038;-67
2022/08/17 02:49:28;;;;;;;13.98;12.18;;;;;;;;;;4954311;28;20077;-66
2022/08/17 02:51:56;;;;;;;14.55;11.82;;;;;;;;;;4951848;28;20049;-68
2022/08/17 02:54:22;;;;;;;14.68;12.25;;;;;;;;;;4951520;28;20037;-68
2022/08/17 02:56:47;;;;;;;15.02;13.05;;;;;;;;;;4969130;28;20433;-66
2022/08/17 02:59:13;;;;;;;15.05;12.98;;;;;;;;;;4957140;28;20648;-66
2022/08/17 03:01:38;;;;;;;17.42;14.05;;;;;;;;;;4954974;28;20037;-65
2022/08/17 03:04:03;;;;;;;17.25;14.10;;;;;;;;;;4959354;28;20049;-66
2022/08/17 03:06:30;;;;;;;18.02;13.10;;;;;;;;;;4945882;28;20034;-66
2022/08/17 03:08:56;;;;;;;15.50;13.40;;;;;;;;;;4966959;28;20046;-66
2022/08/17 03:11:22;;;;;;;18.13;13.95;;;;;;;;;;4950777;28;20507;-66
2022/08/17 03:13:48;;;;;;;16.38;14.60;;;;;;;;;;4949341;28;20188;-65
2022/08/17 03:16:13;;;;;;;16.40;13.82;;;;;;;;;;4950725;28;20322;-65
2022/08/17 03:18:39;;;;;;;20.02;14.48;;;;;;;;;;4953962;28;20034;-67
2022/08/17 03:21:05;;;;;;;17.83;14.73;;;;;;;;;;4950418;28;20035;-66
2022/08/17 03:23:31;;;;;;;18.92;15.25;;;;;;;;;;4954098;28;20522;-67
2022/08/17 03:25:58;;;;;;;18.52;16.30;;;;;;;;;;4951317;28;20477;-68
2022/08/17 03:28:23;;;;;;;19.60;15.05;;;;;;;;;;4950231;28;20039;-66
2022/08/17 03:30:50;;;;;;;17.08;14.65;;;;;;;;;;4952203;28;20383;-65
2022/08/17 03:33:16;;;;;;;21.42;15.32;;;;;;;;;;4950291;28;20202;-65
2022/08/17 03:35:41;;;;;;;18.20;14.65;;;;;;;;;;4953477;28;20475;-65
2022/08/17 03:38:12;;;;;;;18.40;14.85;;;;;;;;;;4949691;28;20035;-67
2022/08/17 03:40:38;;;;;;;19.73;15.48;;;;;;;;;;4952480;28;20034;-67
2022/08/17 03:43:06;;;;;;;18.58;14.77;;;;;;;;;;4950220;28;20038;-68
2022/08/17 03:56:42;;;;;;;16.40;14.65;;;;;;;;;;4951013;28;20069;-66
2022/08/17 03:59:18;;;;;;;17.85;15.43;;;;;;;;;;4949992;28;20625;-65
2022/08/17 04:01:46;;;;;;;19.02;14.95;;;;;;;;;;4953045;28;20479;-68
2022/08/17 04:04:12;;;;;;;15.95;14.18;;;;;;;;;;4950609;28;20030;-67
2022/08/17 04:06:39;;;;;;;17.08;13.95;;;;;;;;;;4954339;28;20035;-67
2022/08/17 04:09:05;;;;;;;18.27;14.15;;;;;;;;;;4949361;28;20039;-66
2022/08/17 04:11:31;;;;;;;18.17;14.15;;;;;;;;;;4950824;28;20060;-66
2022/08/17 04:13:56;;;;;;;19.05;14.07;;;;;;;;;;4953284;28;20046;-67
2022/08/17 04:16:24;;;;;;;16.60;14.23;;;;;;;;;;4950654;28;20046;-67
2022/08/17 04:18:51;;;;;;;17.45;14.15;;;;;;;;;;4950100;28;20121;-66
2022/08/17 04:21:17;;;;;;;19.00;14.43;;;;;;;;;;4949986;28;20555;-65
2022/08/17 04:23:43;;;;;;;18.50;13.63;;;;;;;;;;4950433;28;20050;-65
2022/08/17 04:26:09;;;;;;;16.60;14.02;;;;;;;;;;4950884;28;20070;-66
2022/08/17 04:28:35;;;;;;;19.48;14.25;;;;;;;;;;4950563;28;20110;-66
2022/08/17 04:31:00;;;;;;;18.77;14.38;;;;;;;;;;4951818;28;20491;-68
2022/08/17 04:33:28;;;;;;;19.75;13.77;;;;;;;;;;4946345;28;20105;-64
2022/08/17 04:36:05;;;;;;;19.75;13.95;;;;;;;;;;4949442;28;20042;-68
2022/08/17 04:38:34;;;;;;;15.77;13.02;;;;;;;;;;4950345;28;20512;-68
2022/08/17 04:43:45;;;;;;;16.73;13.20;;;;;;;;;;4952190;28;20702;-66
2022/08/17 04:46:15;;;;;;;15.88;12.60;;;;;;;;;;4949084;28;20054;-67
2022/08/17 04:48:49;;;;;;;19.97;12.80;;;;;;;;;;4950232;28;20582;-65
2022/08/17 04:51:22;;;;;;;15.63;12.52;;;;;;;;;;4949570;28;20077;-68
2022/08/17 04:53:51;;;;;;;15.30;11.80;;;;;;;;;;4950279;28;20481;-68
2022/08/17 04:56:17;;;;;;;14.77;11.68;;;;;;;;;;4948953;28;20181;-68
2022/08/17 04:58:45;;;;;;;15.32;11.55;;;;;;;;;;4949507;28;20035;-67
2022/08/17 05:01:10;;;;;;;13.05;11.48;;;;;;;;;;4951334;28;20035;-71
2022/08/17 05:03:36;;;;;;;14.52;11.57;;;;;;;;;;4951312;28;20946;-66
2022/08/17 05:06:02;;;;;;;13.00;11.55;;;;;;;;;;4951693;28;20035;-66
2022/08/17 05:08:27;;;;;;;13.57;10.85;;;;;;;;;;4959058;28;20042;-67
2022/08/17 05:10:53;;;;;;;17.42;10.90;;;;;;;;;;4971651;28;20031;-64
2022/08/17 05:13:22;;;;;;;14.00;10.93;;;;;;;;;;4971820;28;20058;-64
2022/08/17 05:15:51;;;;;;;16.30;11.43;;;;;;;;;;4972955;28;20077;-63
2022/08/17 05:18:17;;;;;;;15.45;10.82;;;;;;;;;;4970019;28;20027;-64
2022/08/17 05:20:43;;;;;;;13.48;10.70;;;;;;;;;;4972831;28;20391;-63
2022/08/17 05:23:12;;;;;;;18.70;11.13;;;;;;;;;;4971911;28;20034;-65
2022/08/17 05:25:39;;;;;;;12.32;10.25;;;;;;;;;;4971455;28;20039;-64
2022/08/17 05:28:06;;;;;;;14.88;10.48;;;;;;;;;;4969776;28;20035;-66
2022/08/17 05:30:32;;;;;;;14.80;10.43;;;;;;;;;;4971975;28;20394;-67
2022/08/17 05:33:28;;;;;;;14.20;11.27;;;;;;;;;;4971806;28;20038;-66
2022/08/17 05:35:56;;;;;;;14.50;10.77;;;;;;;;;;4969788;28;20047;-66
2022/08/17 05:38:25;;;;;;;14.70;10.80;;;;;;;;;;4968819;28;20479;-66
2022/08/17 05:40:51;;;;;;;15.57;10.80;;;;;;;;;;4972595;28;20031;-67
2022/08/17 05:43:18;;;;;;;13.57;11.45;;;;;;;;;;4971414;28;20483;-65
2022/08/17 05:45:56;;;;;;;12.35;10.77;;;;;;;;;;4972523;28;20035;-67
2022/08/17 05:48:23;;;;;;;15.48;10.93;;;;;;;;;;4969135;28;20039;-67
2022/08/17 05:51:05;;;;;;;15.38;11.82;;;;;;;;;;4970955;28;20059;-66
2022/08/17 05:54:05;;;;;;;14.32;10.40;;;;;;;;;;4964920;28;20042;-68
2022/08/17 05:56:58;;;;;;;14.95;11.70;;;;;;;;;;4965036;28;20045;-64
2022/08/17 05:59:36;;;;;;;17.60;11.27;;;;;;;;;;4973360;28;20023;-65
2022/08/17 06:02:18;;;;;;;16.75;11.80;;;;;;;;;;4975861;28;20038;-63
2022/08/17 06:05:17;;;;;;;17.45;11.93;;;;;;;;;;4974723;28;20045;-63
2022/08/17 06:08:01;;;;;;;15.18;10.70;;;;;;;;;;4974383;28;20046;-72
2022/08/17 06:10:29;;;;;;;16.08;11.10;;;;;;;;;;4974195;28;20043;-65
2022/08/17 06:13:09;;;;;;;15.55;11.40;;;;;;;;;;4975690;28;20575;-65
2022/08/17 06:15:41;;;;;;;20.03;12.03;;;;;;;;;;4975818;28;20027;-63
2022/08/17 06:18:09;;;;;;;14.73;11.15;;;;;;;;;;4973749;28;20062;-67
2022/08/17 06:20:51;;;;;;;17.83;11.10;;;;;;;;;;4975529;28;20026;-63
2022/08/17 06:23:41;;;;;;;13.55;10.32;;;;;;;;;;4974820;28;20035;-63
2022/08/17 06:26:15;;;;;;;17.40;9.95;;;;;;;;;;4973358;28;20141;-67
2022/08/17 06:28:48;;;;;;;11.15;9.10;;;;;;;;;;4974025;28;20079;-63
2022/08/17 06:31:22;;;;;;;12.02;8.90;;;;;;;;;;4974638;28;20379;-63
2022/08/17 06:33:49;;;;;;;11.38;8.77;;;;;;;;;;4975698;28;20034;-63
2022/08/17 06:36:32;;;;;;;12.13;9.30;;;;;;;;;;4974235;28;20082;-68
2022/08/17 06:39:34;;;;;;;12.52;9.02;;;;;;;;;;4955909;28;20354;-63
2022/08/17 06:42:20;;;;;;;13.15;9.27;;;;;;;;;;4958393;28;20039;-63
2022/08/17 06:44:54;;;;;;;14.70;8.80;;;;;;;;;;4974961;28;20047;-63
2022/08/17 06:47:30;;;;;;;12.95;9.23;;;;;;;;;;4972395;28;20035;-63
2022/08/17 06:50:01;;;;;;;12.00;8.75;;;;;;;;;;4974716;28;20039;-63
2022/08/17 06:52:33;;;;;;;11.73;9.30;;;;;;;;;;4974392;28;20030;-63
2022/08/17 06:55:08;;;;;;;12.68;9.00;;;;;;;;;;4973711;28;20027;-63
2022/08/17 06:57:41;;;;;;;12.27;8.70;;;;;;;;;;4973719;28;20133;-63
2022/08/17 07:00:12;;;;;;;14.75;8.60;;;;;;;;;;4974560;28;20092;-67
2022/08/17 07:03:19;;;;;;;18.80;9.10;;;;;;;;;;4973311;28;20085;-62
2022/08/17 07:05:50;;;;;;;11.30;7.95;;;;;;;;;;4972813;28;20102;-63
2022/08/17 07:08:24;;;;;;;16.60;8.27;;;;;;;;;;4973070;28;20122;-63
2022/08/17 07:10:59;;;;;;;11.70;7.43;;;;;;;;;;4974501;28;20043;-63
2022/08/17 07:13:28;;;;;;;11.57;7.50;;;;;;;;;;4973916;28;20031;-62
2022/08/17 07:16:03;;;;;;;15.23;7.40;;;;;;;;;;4974635;28;20066;-63
2022/08/17 07:18:31;;;;;;;9.75;7.05;;;;;;;;;;4972703;28;20256;-64
2022/08/17 07:21:07;;;;;;;10.85;6.97;;;;;;;;;;4974381;28;20208;-64
2022/08/17 07:23:53;;;;;;;11.45;7.25;;;;;;;;;;4974193;28;20105;-64
2022/08/17 07:26:22;;;;;;;12.77;7.30;;;;;;;;;;4972184;28;20050;-64
2022/08/17 07:28:48;;;;;;;10.90;6.85;;;;;;;;;;4972799;28;20045;-62
2022/08/17 07:31:16;;;;;;;11.77;7.00;;;;;;;;;;4972092;28;20031;-64
2022/08/17 07:33:58;;;;;;;10.02;6.93;;;;;;;;;;4974190;28;20053;-62
2022/08/17 07:36:25;;;;;;;12.98;6.32;;;;;;;;;;4972176;28;20508;-64
2022/08/17 07:38:56;;;;;;;10.60;6.38;;;;;;;;;;4974268;28;20038;-64
2022/08/17 07:41:22;;;;;;;17.20;6.63;;;;;;;;;;4973228;28;20102;-65
2022/08/17 07:43:51;;;;;;;10.70;6.68;;;;;;;;;;4974037;28;20468;-64
2022/08/17 07:49:08;;;;;;;12.98;6.25;;;;;;;;;;4954278;29;20050;-69
2022/08/17 07:51:41;;;;;;;8.93;6.50;;;;;;;;;;4953813;28;20380;-65
2022/08/17 07:54:17;;;;;;;14.48;7.15;;;;;;;;;;4954444;28;20038;-63
2022/08/17 07:56:44;;;;;;;15.32;6.70;;;;;;;;;;4963253;28;20042;-64
2022/08/17 07:59:33;;;;;;;8.43;6.30;;;;;;;;;;4992312;28;20034;-64
2022/08/17 08:02:13;;;;;;;10.63;6.03;;;;;;;;;;4986995;28;20085;-64
2022/08/17 08:04:44;;;;;;;11.68;6.18;;;;;;;;;;4989719;28;20038;-63
2022/08/17 08:07:22;;;;;;;11.15;6.90;;;;;;;;;;4983703;28;20085;-63
2022/08/17 08:10:05;;;;;;;13.93;6.85;;;;;;;;;;4971881;28;20395;-63
2022/08/17 08:12:44;;;;;;;11.57;6.75;;;;;;;;;;4972328;28;20057;-63
2022/08/17 08:15:24;;;;;;;15.35;6.47;;;;;;;;;;4973007;28;20383;-63
2022/08/17 08:18:01;;;;;;;8.02;5.70;;;;;;;;;;4971542;28;20043;-63
2022/08/17 08:20:30;;;;;;;11.85;5.95;;;;;;;;;;4970872;28;20408;-64
2022/08/17 08:23:17;;;;;;;12.55;6.13;;;;;;;;;;4967926;28;20034;-65
2022/08/17 08:26:05;;;;;;;11.73;5.30;;;;;;;;;;4964385;28;20053;-65
2022/08/17 08:28:48;;;;;;;10.57;5.68;;;;;;;;;;4971460;28;20038;-64
2022/08/17 08:31:29;;;;;;;10.30;5.20;;;;;;;;;;4953052;28;20093;-67
2022/08/17 08:34:11;;;;;;;9.05;5.13;;;;;;;;;;4965604;28;20034;-64
2022/08/17 08:36:57;;;;;;;12.60;4.78;;;;;;;;;;4972408;28;20391;-64
2022/08/17 08:40:07;;;;;;;17.33;5.15;;;;;;;;;;4971991;28;20097;-64
2022/08/17 08:43:05;;;;;;;16.33;5.03;;;;;;;;;;4969746;28;20118;-64
2022/08/17 08:45:55;;;;;;;9.57;4.90;;;;;;;;;;4964474;28;20837;-64
2022/08/17 08:48:29;;;;;;;7.25;4.90;;;;;;;;;;4969874;28;20055;-64
2022/08/17 08:51:10;;;;;;;9.07;4.95;;;;;;;;;;4972844;28;20056;-63
2022/08/17 08:53:57;;;;;;;10.43;4.63;;;;;;;;;;4971259;28;20310;-63
2022/08/17 08:56:53;;;;;;;10.02;4.78;;;;;;;;;;4972062;28;20135;-65
2022/08/17 08:59:27;;;;;;;12.07;5.00;;;;;;;;;;4972211;28;20034;-64
2022/08/17 09:02:02;;;;;;;8.68;4.88;;;;;;;;;;4972626;28;20042;-64
2022/08/17 09:04:55;;;;;;;9.15;4.72;;;;;;;;;;4972119;28;20121;-64
2022/08/17 09:07:49;;;;;;;8.75;4.50;;;;;;;;;;4961397;28;20049;-64
2022/08/17 09:10:25;;;;;;;8.52;4.80;;;;;;;;;;4972861;28;20134;-68
2022/08/17 09:13:09;;;;;;;9.75;4.70;;;;;;;;;;4971355;28;20110;-62
2022/08/17 09:15:58;;;;;;;6.03;4.43;;;;;;;;;;4955523;28;20059;-63
2022/08/17 09:18:29;;;;;;;6.50;4.93;;;;;;;;;;4952836;28;20090;-63
2022/08/17 09:20:58;;;;;;;8.38;4.82;;;;;;;;;;4953481;28;20089;-63
2022/08/17 09:23:35;;;;;;;9.60;4.60;;;;;;;;;;4960392;28;20039;-63
2022/08/17 09:26:19;;;;;;;9.30;4.88;;;;;;;;;;4972964;28;20049;-63
2022/08/17 09:28:50;;;;;;;12.70;4.95;;;;;;;;;;4975644;28;20039;-62
2022/08/17 09:31:21;;;;;;;10.27;4.82;;;;;;;;;;4976065;28;20034;-68
2022/08/17 09:33:47;;;;;;;9.73;4.80;;;;;;;;;;4975024;28;20035;-62
2022/08/17 09:36:29;;;;;;;10.13;5.00;;;;;;;;;;4975787;28;20046;-63
2022/08/17 09:39:21;;;;;;;14.23;5.28;;;;;;;;;;4976403;28;20117;-64
2022/08/17 09:42:09;;;;;;;10.85;5.30;;;;;;;;;;4976015;28;20034;-64
2022/08/17 09:44:39;;;;;;;10.27;5.43;;;;;;;;;;4974351;28;20030;-63
2022/08/17 09:47:16;;;;;;;11.25;5.30;;;;;;;;;;4976180;28;20082;-64
2022/08/17 09:49:48;;;;;;;11.05;5.63;;;;;;;;;;4975825;28;20042;-64
2022/08/17 09:52:23;;;;;;;10.43;6.10;;;;;;;;;;4975891;28;20038;-63
2022/08/17 09:54:51;;;;;;;9.02;5.80;;;;;;;;;;4974915;28;20039;-64
2022/08/17 09:57:23;;;;;;;9.18;5.15;;;;;;;;;;4975609;28;20050;-67
2022/08/17 09:59:59;;;;;;;9.77;6.10;;;;;;;;;;4956466;28;20055;-62
2022/08/17 10:02:53;;;;;;;9.05;5.50;;;;;;;;;;4970276;28;20467;-66
2022/08/17 10:05:21;;;;;;;16.00;5.97;;;;;;;;;;4955854;28;20027;-67
2022/08/17 10:07:58;;;;;;;9.98;6.05;;;;;;;;;;4971227;28;20053;-63
2022/08/17 10:10:44;;;;;;;11.75;6.07;;;;;;;;;;4973759;28;20031;-64
2022/08/17 10:13:24;;;;;;;16.08;6.47;;;;;;;;;;4974645;28;20035;-63
2022/08/17 10:15:50;;;;;;;14.50;6.78;;;;;;;;;;4975618;28;20043;-63
2022/08/17 10:18:18;;;;;;;11.10;6.32;;;;;;;;;;4974666;28;20113;-63
2022/08/17 10:27:14;;;;;;;15.40;6.55;;;;;;;;;;4975537;28;20126;-63
2022/08/17 10:29:45;;;;;;;11.85;6.60;;;;;;;;;;4965553;28;20506;-64
2022/08/17 10:32:16;;;;;;;12.77;6.35;;;;;;;;;;4973956;28;20039;-63
2022/08/17 10:35:11;;;;;;;11.80;6.80;;;;;;;;;;4974440;28;20030;-64
2022/08/17 10:38:05;;;;;;;15.85;6.47;;;;;;;;;;4972533;28;20490;-64
2022/08/17 10:40:45;;;;;;;11.20;6.95;;;;;;;;;;4964654;28;20057;-63
2022/08/17 10:43:22;;;;;;;12.18;6.60;;;;;;;;;;4973603;28;20123;-63
2022/08/17 10:46:29;;;;;;;14.57;7.25;;;;;;;;;;4972592;28;20043;-65
2022/08/17 10:49:34;;;;;;;15.75;6.95;;;;;;;;;;4955188;28;20094;-63
2022/08/17 10:52:20;;;;;;;12.93;7.68;;;;;;;;;;4970751;28;20047;-63
2022/08/17 10:54:58;;;;;;;11.50;7.22;;;;;;;;;;4969665;28;20062;-64
2022/08/17 10:57:32;;;;;;;11.32;7.72;;;;;;;;;;4968670;28;20093;-66
2022/08/17 11:00:06;;;;;;;11.93;7.72;;;;;;;;;;4970193;28;20407;-64
2022/08/17 11:02:52;;;;;;;9.98;7.90;;;;;;;;;;4963767;28;20062;-63
2022/08/17 11:06:00;;;;;;;10.82;8.05;;;;;;;;;;4971057;28;20118;-66
2022/08/17 11:08:53;;;;;;;16.45;9.15;;;;;;;;;;4967323;28;20165;-63
2022/08/17 11:11:34;;;;;;;13.45;8.73;;;;;;;;;;4971339;28;20034;-63
2022/08/17 11:14:18;;;;;;;12.98;8.73;;;;;;;;;;4970670;28;20049;-62
2022/08/17 11:16:46;;;;;;;13.10;8.65;;;;;;;;;;4970209;28;20587;-63
2022/08/17 11:19:48;;;;;;;14.35;8.77;;;;;;;;;;4971694;28;20118;-63
2022/08/17 11:23:15;;;;;;;15.10;9.07;;;;;;;;;;4966826;28;20403;-63
2022/08/17 11:25:47;;;;;;;12.90;8.88;;;;;;;;;;4937510;28;20626;-64
2022/08/17 11:28:17;;;;;;;16.90;10.15;;;;;;;;;;4971655;28;20502;-64
2022/08/17 11:30:55;;;;;;;21.17;10.75;;;;;;;;;;4973598;28;20665;-64
2022/08/17 11:33:33;;;;;;;19.10;12.40;;;;;;;;;;4972299;28;20039;-64
2022/08/17 11:36:13;;;;;;;21.73;12.77;;;;;;;;;;4974081;28;20406;-63
2022/08/17 11:38:56;;;;;;;19.13;12.88;;;;;;;;;;4967349;28;20105;-63
2022/08/17 11:41:53;;;;;;;14.98;13.27;;;;;;;;;;4972219;28;20172;-68
2022/08/17 11:44:51;;;;;;;16.50;13.10;;;;;;;;;;4954630;28;20046;-62
2022/08/17 11:53:37;;;;;;;20.42;15.30;;;;;;;;;;4971539;28;20093;-68
2022/08/17 11:56:06;;;;;;;24.73;16.25;;;;;;;;;;4972311;28;20043;-62
2022/08/17 11:58:46;;;;;;;18.90;15.05;;;;;;;;;;4968614;28;20031;-63
2022/08/17 12:01:50;;;;;;;21.73;17.13;;;;;;;;;;4972975;28;20483;-63
2022/08/17 12:04:32;;;;;;;21.60;16.27;;;;;;;;;;4972542;28;20113;-63
2022/08/17 12:07:15;;;;;;;24.48;16.30;;;;;;;;;;4972118;28;20027;-65
2022/08/17 12:09:46;;;;;;;23.65;17.15;;;;;;;;;;4967487;28;20038;-63
2022/08/17 12:12:28;;;;;;;22.60;17.65;;;;;;;;;;4972532;28;20038;-63
2022/08/17 12:14:58;;;;;;;24.17;16.75;;;;;;;;;;4971401;28;20467;-63
2022/08/17 12:17:29;;;;;;;24.20;17.03;;;;;;;;;;4972576;28;20031;-62
2022/08/17 12:20:11;;;;;;;23.92;17.80;;;;;;;;;;4971735;28;20299;-62
2022/08/17 12:22:59;;;;;;;23.92;17.80;;;;;;;;;;4971394;28;20101;-62
2022/08/17 12:25:36;;;;;;;23.17;18.45;;;;;;;;;;4972297;28;20022;-66
2022/08/17 12:28:03;;;;;;;23.23;19.50;;;;;;;;;;4971427;28;20030;-62
2022/08/17 12:30:28;;;;;;;26.73;20.02;;;;;;;;;;4970045;28;20035;-66
2022/08/17 12:32:53;;;;;;;24.23;18.83;;;;;;;;;;4971896;28;20137;-63
2022/08/17 12:35:34;;;;;;;22.10;19.52;;;;;;;;;;4974591;28;20088;-63
2022/08/17 12:38:02;;;;;;;25.42;20.00;;;;;;;;;;4972943;28;20038;-63
2022/08/17 12:40:30;;;;;;;26.42;20.55;;;;;;;;;;4962484;28;20107;-68
2022/08/17 12:43:17;;;;;;;27.65;20.60;;;;;;;;;;4968829;28;20069;-64
2022/08/17 12:45:43;;;;;;;23.30;19.05;;;;;;;;;;4972235;28;20090;-63
2022/08/17 12:48:21;;;;;;;25.65;22.15;;;;;;;;;;4970734;28;20178;-63
2022/08/17 12:50:49;;;;;;;28.88;20.50;;;;;;;;;;4967089;28;20203;-62
2022/08/17 12:53:19;;;;;;;31.73;22.20;;;;;;;;;;4968343;28;20034;-62
2022/08/17 12:55:45;;;;;;;26.08;22.30;;;;;;;;;;4961493;28;20113;-63
2022/08/17 12:58:16;;;;;;;35.63;22.30;;;;;;;;;;4968098;28;20102;-63
2022/08/17 13:00:48;;;;;;;28.27;21.55;;;;;;;;;;4968676;28;20074;-62
2022/08/17 13:03:23;;;;;;;27.42;22.08;;;;;;;;;;4974528;28;20035;-62
2022/08/17 13:05:51;;;;;;;25.88;19.13;;;;;;;;;;4973105;28;20130;-62
2022/08/17 13:08:44;;;;;;;26.67;19.40;;;;;;;;;;4976245;28;20034;-62
2022/08/17 13:11:12;;;;;;;22.83;19.65;;;;;;;;;;4974248;28;20051;-62
2022/08/17 13:13:41;;;;;;;23.85;20.27;;;;;;;;;;4975060;28;20026;-64
2022/08/17 13:16:13;;;;;;;26.98;21.20;;;;;;;;;;4975010;28;20053;-63
2022/08/17 13:18:48;;;;;;;22.98;20.08;;;;;;;;;;4974172;28;20045;-63
2022/08/17 13:21:22;;;;;;;30.33;20.70;;;;;;;;;;4974639;28;20035;-63
2022/08/17 13:24:12;;;;;;;21.88;18.73;;;;;;;;;;4974820;28;20037;-63
2022/08/17 13:26:42;;;;;;;27.15;19.55;;;;;;;;;;4956380;28;20476;-61
2022/08/17 13:29:17;;;;;;;27.67;19.50;;;;;;;;;;4961221;28;20098;-61
2022/08/17 13:31:42;;;;;;;27.40;19.63;;;;;;;;;;4975293;28;20379;-64
2022/08/17 13:34:23;;;;;;;25.63;20.65;;;;;;;;;;4972971;28;20033;-63
2022/08/17 13:36:48;;;;;;;;;;;;;;;;;;4975737;28;20812;-63
2022/08/17 13:39:17;;;;;;;28.40;20.20;;;;;;;;;;4975017;28;19918;-62
2022/08/17 13:41:44;;;;;;;27.95;24.40;;;;;;;;;;4974420;28;20391;-63
2022/08/17 13:44:36;;;;;;;28.38;24.40;;;;;;;;;;4957809;28;20038;-63
2022/08/17 13:47:14;;;;;;;30.95;25.90;;;;;;;;;;4968848;28;20117;-62
2022/08/17 13:49:39;;;;;;;29.67;23.88;;;;;;;;;;4975679;28;20042;-62
2022/08/17 13:52:08;;;;;;;31.55;25.90;;;;;;;;;;4977393;28;20027;-63
2022/08/17 13:54:36;;;;;;;33.17;27.52;;;;;;;;;;4975475;28;20141;-66
2022/08/17 13:57:24;;;;;;;30.73;27.45;;;;;;;;;;4967856;28;20519;-65
2022/08/17 13:59:53;;;;;;;31.15;27.65;;;;;;;;;;4962271;28;20042;-64
2022/08/17 14:02:19;;;;;;;36.80;29.50;;;;;;;;;;4970216;28;20034;-64
2022/08/17 14:04:46;;;;;;;37.90;30.42;;;;;;;;;;4974028;28;20129;-65
2022/08/17 14:07:11;;;;;;;34.30;28.23;;;;;;;;;;4975169;28;20031;-64
2022/08/17 14:09:46;;;;;;;33.83;28.80;;;;;;;;;;4974238;28;20054;-67
2022/08/17 14:12:15;;;;;;;32.40;28.02;;;;;;;;;;4972092;28;20066;-64
2022/08/17 14:14:41;;;;;;;33.38;28.48;;;;;;;;;;4969053;28;20053;-66
2022/08/17 14:17:08;;;;;;;34.63;28.73;;;;;;;;;;4975553;28;20035;-65
2022/08/17 14:19:33;;;;;;;30.73;27.40;;;;;;;;;;4974923;28;20034;-69
2022/08/17 14:21:59;;;;;;;36.38;29.60;;;;;;;;;;4960285;28;20066;-65
2022/08/17 14:24:30;;;;;;;32.40;28.70;;;;;;;;;;4956837;28;20178;-67
2022/08/17 14:26:56;;;;;;;35.67;29.30;;;;;;;;;;4974506;28;20034;-63
2022/08/17 14:29:24;;;;;;;30.45;26.88;;;;;;;;;;4973401;28;20041;-63
2022/08/17 14:31:50;;;;;;;37.15;27.75;;;;;;;;;;4970974;28;20054;-64
2022/08/17 14:34:16;;;;;;;28.52;25.35;;;;;;;;;;4974883;28;20379;-63
2022/08/17 14:36:42;;;;;;;33.63;26.17;;;;;;;;;;4973500;28;20484;-64
2022/08/17 14:39:12;;;;;;;33.65;27.85;;;;;;;;;;4967252;28;20038;-62
2022/08/17 14:41:39;;;;;;;37.35;30.52;;;;;;;;;;4973271;28;20039;-63
2022/08/17 14:44:04;;;;;;;31.33;27.55;;;;;;;;;;4965784;28;20469;-63
2022/08/17 14:46:31;;;;;;;36.33;29.30;;;;;;;;;;4972846;28;20039;-62
2022/08/17 14:48:56;;;;;;;33.05;27.27;;;;;;;;;;4972511;28;20031;-62
2022/08/17 14:51:22;;;;;;;33.83;28.75;;;;;;;;;;4973100;28;20027;-63
2022/08/17 14:53:49;;;;;;;38.58;29.45;;;;;;;;;;4972526;28;20495;-64
2022/08/17 14:56:15;;;;;;;35.67;28.63;;;;;;;;;;4974593;28;20062;-62
2022/08/17 14:58:41;;;;;;;33.10;28.15;;;;;;;;;;4970965;28;20031;-64
2022/08/17 15:01:11;;;;;;;37.97;31.08;;;;;;;;;;4974204;28;20483;-63
2022/08/17 15:03:38;;;;;;;36.47;30.33;;;;;;;;;;4971353;28;20034;-68
2022/08/17 15:06:04;;;;;;;35.35;29.15;;;;;;;;;;4967773;28;20485;-61
2022/08/17 15:08:30;;;;;;;36.40;30.48;;;;;;;;;;4967719;28;20034;-61
2022/08/17 15:10:56;;;;;;;34.88;29.20;;;;;;;;;;4970920;28;20124;-63
2022/08/17 15:13:24;;;;;;;38.88;31.80;;;;;;;;;;4954996;28;20115;-63
2022/08/17 15:15:50;;;;;;;36.55;32.42;;;;;;;;;;4968271;28;20090;-63
2022/08/17 15:18:17;;;;;;;38.55;32.78;;;;;;;;;;4973706;28;20050;-61
2022/08/17 15:20:44;;;;;;;42.17;32.17;;;;;;;;;;4967570;28;20043;-64
2022/08/17 15:23:14;;;;;;;36.25;31.45;;;;;;;;;;4968692;28;20432;-66
2022/08/17 15:25:40;;;;;;;39.92;32.58;;;;;;;;;;4971169;28;20132;-64
2022/08/17 15:28:06;;;;;;;37.78;31.92;;;;;;;;;;4972740;28;20368;-63